Time;durP1;ratioP1;P1;durP2;ratioP2;P2;SDS_P1;SDS_P2;PMS_P1;PMS_P2;Temp;Humidity;BMP_temperature;BMP_pressure;BME280_temperature;BME280_humidity;BME280_pressure;Samples;Min_cycle;Max_cycle;Signal;HPM_P1;HPM_P2
2022/06/16 00:00:05;;;;;;;;;;;;;;;;;;5113850;28;919;-68
2022/06/16 00:02:30;;;;;;;;;;;;;;;;;;5113249;27;1317;-68
2022/06/16 00:04:56;;;;;;;;;;;;;;;;;;5112321;28;856;-68
2022/06/16 00:07:23;;;;;;;;;;;;;;;;;;5094800;28;1294;-68
2022/06/16 00:09:48;;;;;;;;;;;;;;;;;;5113751;28;1914;-67
2022/06/16 00:12:13;;;;;;;;;;;;;;;;;;5113928;28;832;-67
2022/06/16 00:14:39;;;;;;;;;;;;;;;;;;5112356;28;1577;-68
2022/06/16 00:17:04;;;;;;;;;;;;;;;;;;5111783;28;742;-67
2022/06/16 00:19:29;;;;;;;;;;;;;;;;;;5113206;28;828;-67
2022/06/16 00:21:55;;;;;;;;;;;;;;;;;;5112200;28;1481;-68
2022/06/16 00:24:26;;;;;;;;;;;;;;;;;;5111557;28;868;-68
2022/06/16 00:26:51;;;;;;;;;;;;;;;;;;5112210;28;1364;-68
2022/06/16 00:29:17;;;;;;;;;;;;;;;;;;5112659;28;1923;-68
2022/06/16 00:31:42;;;;;;;;;;;;;;;;;;5113213;28;857;-67
2022/06/16 00:34:07;;;;;;;;;;;;;;;;;;5113601;28;1033;-68
2022/06/16 00:36:34;;;;;;;;;;;;;;;;;;5112777;28;757;-68
2022/06/16 00:38:59;;;;;;;;;;;;;;;;;;5111697;28;1322;-68
2022/06/16 00:41:24;;;;;;;;;;;;;;;;;;5113079;28;867;-68
2022/06/16 00:43:49;;;;;;;;;;;;;;;;;;5113627;28;816;-68
2022/06/16 00:46:17;;;;;;;;;;;;;;;;;;5111188;28;986;-68
2022/06/16 00:48:48;;;;;;;;;;;;;;;;;;5113274;28;1976;-65
2022/06/16 00:51:39;;;;;;;;;;;;;;;;;;5111692;28;1165;-67
2022/06/16 00:54:08;;;;;;;;;;;;;;;;;;5112960;28;880;-67
2022/06/16 00:56:34;;;;;;;;;;;;;;;;;;5112951;28;914;-67
2022/06/16 00:59:02;;;;;;;;;;;;;;;;;;5113300;28;1061;-68
2022/06/16 01:01:28;;;;;;;;;;;;;;;;;;5111296;28;1259;-68
2022/06/16 01:06:38;;;;;;;;;;;;;;;;;;5114018;28;643;-67
2022/06/16 01:09:07;;;;;;;;;;;;;;;;;;5113548;28;1955;-67
2022/06/16 01:14:36;;;;;;;;;;;;;;;;;;5113361;28;650;-67
2022/06/16 01:17:07;;;;;;;;;;;;;;;;;;5113299;28;946;-67
2022/06/16 01:20:11;;;;;;;;;;;;;;;;;;5113287;28;924;-67
2022/06/16 01:22:55;;;;;;;;;;;;;;;;;;5053493;28;1150;-66
2022/06/16 01:25:39;;;;;;;;;;;;;;;;;;5069566;28;979;-68
2022/06/16 01:28:14;;;;;;;;;;;;;;;;;;5100119;28;1902;-67
2022/06/16 01:30:59;;;;;;;;;;;;;;;;;;5112861;28;915;-67
2022/06/16 01:33:32;;;;;;;;;;;;;;;;;;5090911;28;1045;-67
2022/06/16 01:36:00;;;;;;;;;;;;;;;;;;5111305;28;1548;-67
2022/06/16 01:38:37;;;;;;;;;;;;;;;;;;5112671;28;848;-67
2022/06/16 01:41:21;;;;;;;;;;;;;;;;;;5111031;28;1162;-67
2022/06/16 01:43:52;;;;;;;;;;;;;;;;;;5111443;28;1408;-67
2022/06/16 01:46:21;;;;;;;;;;;;;;;;;;5111785;28;1054;-67
2022/06/16 01:48:49;;;;;;;;;;;;;;;;;;5112143;28;1961;-68
2022/06/16 01:51:35;;;;;;;;;;;;;;;;;;5111985;28;828;-67
2022/06/16 01:54:07;;;;;;;;;;;;;;;;;;5112568;28;1046;-68
2022/06/16 01:56:44;;;;;;;;;;;;;;;;;;5112777;28;893;-67
2022/06/16 01:59:14;;;;;;;;;;;;;;;;;;5112617;28;998;-68
2022/06/16 02:01:44;;;;;;;;;;;;;;;;;;5112162;28;859;-67
2022/06/16 02:04:33;;;;;;;;;;;;;;;;;;5112429;28;929;-67
2022/06/16 02:07:00;;;;;;;;;;;;;;;;;;5106235;28;1094;-67
2022/06/16 02:09:32;;;;;;;;;;;;;;;;;;5114654;27;1901;-68
2022/06/16 02:11:59;;;;;;;;;;;;;;;;;;5109880;28;1210;-67
2022/06/16 02:14:41;;;;;;;;;;;;;;;;;;5118926;27;1266;-67
2022/06/16 02:17:07;;;;;;;;;;;;;;;;;;5127863;27;1356;-68
2022/06/16 02:19:33;;;;;;;;;;;;;;;;;;5112119;27;1186;-68
2022/06/16 02:21:58;;;;;;;;;;;;;;;;;;5110160;28;820;-68
2022/06/16 02:24:27;;;;;;;;;;;;;;;;;;5111357;28;812;-68
2022/06/16 02:26:56;;;;;;;;;;;;;;;;;;5111548;28;1080;-66
2022/06/16 02:29:25;;;;;;;;;;;;;;;;;;5109339;28;1909;-68
2022/06/16 02:32:01;;;;;;;;;;;;;;;;;;5111098;28;812;-68
2022/06/16 02:34:45;;;;;;;;;;;;;;;;;;5111086;28;896;-67
2022/06/16 02:37:23;;;;;;;;;;;;;;;;;;5109727;28;1233;-68
2022/06/16 02:39:54;;;;;;;;;;;;;;;;;;5111063;28;922;-67
2022/06/16 02:42:43;;;;;;;;;;;;;;;;;;5109508;28;1570;-67
2022/06/16 02:45:19;;;;;;;;;;;;;;;;;;5106103;28;1174;-67
2022/06/16 02:47:57;;;;;;;;;;;;;;;;;;5111908;28;927;-67
2022/06/16 02:50:41;;;;;;;;;;;;;;;;;;5113190;28;828;-67
2022/06/16 02:53:12;;;;;;;;;;;;;;;;;;5114033;28;927;-67
2022/06/16 02:55:44;;;;;;;;;;;;;;;;;;5112489;28;1186;-66
2022/06/16 02:58:11;;;;;;;;;;;;;;;;;;5113872;28;936;-66
2022/06/16 03:00:41;;;;;;;;;;;;;;;;;;5112418;28;1075;-68
2022/06/16 03:03:19;;;;;;;;;;;;;;;;;;5113951;28;1022;-67
2022/06/16 03:05:44;;;;;;;;;;;;;;;;;;5113342;28;820;-67
2022/06/16 03:08:10;;;;;;;;;;;;;;;;;;5112736;28;1945;-67
2022/06/16 03:10:53;;;;;;;;;;;;;;;;;;5112916;28;860;-67
2022/06/16 03:13:26;;;;;;;;;;;;;;;;;;5111634;28;867;-68
2022/06/16 03:15:53;;;;;;;;;;;;;;;;;;5112452;28;1176;-67
2022/06/16 03:18:19;;;;;;;;;;;;;;;;;;5108431;28;1497;-67
2022/06/16 03:20:44;;;;;;;;;;;;;;;;;;5110298;28;820;-67
2022/06/16 03:23:10;;;;;;;;;;;;;;;;;;5109413;28;1169;-68
2022/06/16 03:25:35;;;;;;;;;;;;;;;;;;5110246;28;900;-67
2022/06/16 03:28:00;;;;;;;;;;;;;;;;;;5108843;28;1910;-67
2022/06/16 03:30:26;;;;;;;;;;;;;;;;;;5108435;28;849;-67
2022/06/16 03:32:51;;;;;;;;;;;;;;;;;;5110583;28;837;-68
2022/06/16 03:35:16;;;;;;;;;;;;;;;;;;5108707;28;963;-67
2022/06/16 03:37:42;;;;;;;;;;;;;;;;;;5110292;28;892;-67
2022/06/16 03:40:08;;;;;;;;;;;;;;;;;;5110628;28;966;-67
2022/06/16 03:42:33;;;;;;;;;;;;;;;;;;5109963;28;903;-68
2022/06/16 03:44:58;;;;;;;;;;;;;;;;;;5108855;28;958;-67
2022/06/16 03:47:24;;;;;;;;;;;;;;;;;;5109837;28;828;-67
2022/06/16 03:49:49;;;;;;;;;;;;;;;;;;5092022;28;1901;-67
2022/06/16 03:52:14;;;;;;;;;;;;;;;;;;5111358;28;915;-67
2022/06/16 03:54:40;;;;;;;;;;;;;;;;;;5114575;28;808;-67
2022/06/16 03:57:05;;;;;;;;;;;;;;;;;;5112556;28;1272;-67
2022/06/16 03:59:31;;;;;;;;;;;;;;;;;;5113571;28;796;-67
2022/06/16 04:01:56;;;;;;;;;;;;;;;;;;5113898;28;978;-67
2022/06/16 04:04:21;;;;;;;;;;;;;;;;;;5113985;28;765;-68
2022/06/16 04:06:46;;;;;;;;;;;;;;;;;;5111992;28;1018;-67
2022/06/16 04:09:11;;;;;;;;;;;;;;;;;;5114063;28;1910;-67
2022/06/16 04:11:37;;;;;;;;;;;;;;;;;;5113441;28;855;-67
2022/06/16 04:14:09;;;;;;;;;;;;;;;;;;5112306;28;1276;-67
2022/06/16 04:16:36;;;;;;;;;;;;;;;;;;5111530;28;1260;-67
2022/06/16 04:19:02;;;;;;;;;;;;;;;;;;5113393;28;777;-67
2022/06/16 04:21:28;;;;;;;;;;;;;;;;;;5112059;28;1438;-68
2022/06/16 04:23:53;;;;;;;;;;;;;;;;;;5113751;28;797;-68
2022/06/16 04:26:18;;;;;;;;;;;;;;;;;;5111704;28;1233;-67
2022/06/16 04:28:43;;;;;;;;;;;;;;;;;;5111821;28;1986;-67
2022/06/16 04:31:09;;;;;;;;;;;;;;;;;;5112551;28;1339;-67
2022/06/16 04:33:34;;;;;;;;;;;;;;;;;;5112968;27;828;-68
2022/06/16 04:35:59;;;;;;;;;;;;;;;;;;5112295;28;1424;-68
2022/06/16 04:38:26;;;;;;;;;;;;;;;;;;5112991;28;883;-67
2022/06/16 04:40:51;;;;;;;;;;;;;;;;;;5113415;28;891;-67
2022/06/16 04:43:17;;;;;;;;;;;;;;;;;;5093487;28;1337;-68
2022/06/16 04:45:43;;;;;;;;;;;;;;;;;;5111165;28;1186;-68
2022/06/16 04:48:08;;;;;;;;;;;;;;;;;;5111441;28;1981;-67
2022/06/16 04:50:34;;;;;;;;;;;;;;;;;;5113018;28;965;-67
2022/06/16 04:52:59;;;;;;;;;;;;;;;;;;5116887;27;1187;-67
2022/06/16 04:55:25;;;;;;;;;;;;;;;;;;5129084;27;1226;-67
2022/06/16 04:57:50;;;;;;;;;;;;;;;;;;5122915;27;1004;-67
2022/06/16 05:00:16;;;;;;;;;;;;;;;;;;5111357;28;1186;-67
2022/06/16 05:02:42;;;;;;;;;;;;;;;;;;5110768;28;1310;-67
2022/06/16 05:05:07;;;;;;;;;;;;;;;;;;5112287;28;848;-67
2022/06/16 05:07:32;;;;;;;;;;;;;;;;;;5111588;28;911;-68
2022/06/16 05:09:58;;;;;;;;;;;;;;;;;;5112295;28;1945;-67
2022/06/16 05:12:23;;;;;;;;;;;;;;;;;;5112233;28;1041;-67
2022/06/16 05:14:48;;;;;;;;;;;;;;;;;;5111334;28;1197;-67
2022/06/16 05:17:13;;;;;;;;;;;;;;;;;;5111066;28;1345;-67
2022/06/16 05:19:38;;;;;;;;;;;;;;;;;;5111992;28;796;-67
2022/06/16 05:22:05;;;;;;;;;;;;;;;;;;5111096;28;1050;-67
2022/06/16 05:24:31;;;;;;;;;;;;;;;;;;5112079;28;970;-67
2022/06/16 05:26:56;;;;;;;;;;;;;;;;;;5112161;28;1044;-67
2022/06/16 05:29:21;;;;;;;;;;;;;;;;;;5110509;28;1909;-67
2022/06/16 05:31:47;;;;;;;;;;;;;;;;;;5110486;28;1331;-66
2022/06/16 05:34:12;;;;;;;;;;;;;;;;;;5112626;28;847;-66
2022/06/16 05:36:37;;;;;;;;;;;;;;;;;;5112216;28;829;-66
2022/06/16 05:39:03;;;;;;;;;;;;;;;;;;5110374;28;1372;-66
2022/06/16 05:41:28;;;;;;;;;;;;;;;;;;5110618;28;1155;-66
2022/06/16 05:43:53;;;;;;;;;;;;;;;;;;5110549;28;1194;-66
2022/06/16 05:46:20;;;;;;;;;;;;;;;;;;5111800;28;971;-66
2022/06/16 05:48:45;;;;;;;;;;;;;;;;;;5111786;28;1981;-67
2022/06/16 05:51:11;;;;;;;;;;;;;;;;;;5112665;28;1002;-66
2022/06/16 05:53:37;;;;;;;;;;;;;;;;;;5110478;28;1323;-66
2022/06/16 05:56:02;;;;;;;;;;;;;;;;;;5111468;28;967;-66
2022/06/16 05:58:28;;;;;;;;;;;;;;;;;;5111662;28;860;-66
2022/06/16 06:00:53;;;;;;;;;;;;;;;;;;5111469;28;959;-66
2022/06/16 06:03:18;;;;;;;;;;;;;;;;;;5111276;28;749;-66
2022/06/16 06:05:44;;;;;;;;;;;;;;;;;;5112224;28;986;-67
2022/06/16 06:16:37;;;;;;;;;;;;;;;;;;5110729;28;631;-66
2022/06/16 06:22:03;;;;;;;;;;;;;;;;;;5111706;28;722;-66
2022/06/16 06:24:32;;;;;;;;;;;;;;;;;;5111559;28;840;-66
2022/06/16 06:26:59;;;;;;;;;;;;;;;;;;5111643;28;1247;-67
2022/06/16 06:29:25;;;;;;;;;;;;;;;;;;5108939;28;1910;-66
2022/06/16 06:31:51;;;;;;;;;;;;;;;;;;5109329;28;892;-66
2022/06/16 06:34:16;;;;;;;;;;;;;;;;;;5110667;28;923;-66
2022/06/16 06:36:41;;;;;;;;;;;;;;;;;;5109219;28;1399;-66
2022/06/16 06:39:08;;;;;;;;;;;;;;;;;;5110729;28;785;-66
2022/06/16 06:41:33;;;;;;;;;;;;;;;;;;5110770;28;848;-65
2022/06/16 06:43:59;;;;;;;;;;;;;;;;;;5109385;28;837;-65
2022/06/16 06:46:24;;;;;;;;;;;;;;;;;;5109201;28;861;-66
2022/06/16 06:48:49;;;;;;;;;;;;;;;;;;5110653;28;1893;-65
2022/06/16 06:51:15;;;;;;;;;;;;;;;;;;5109590;28;1025;-66
2022/06/16 06:53:40;;;;;;;;;;;;;;;;;;5109256;28;1278;-65
2022/06/16 06:56:06;;;;;;;;;;;;;;;;;;5110479;28;844;-66
2022/06/16 06:58:34;;;;;;;;;;;;;;;;;;5091929;28;1288;-66
2022/06/16 07:01:01;;;;;;;;;;;;;;;;;;5109077;28;1186;-67
2022/06/16 07:03:27;;;;;;;;;;;;;;;;;;5110184;28;812;-66
2022/06/16 07:05:52;;;;;;;;;;;;;;;;;;5110680;28;916;-66
2022/06/16 07:08:17;;;;;;;;;;;;;;;;;;5108515;28;1973;-66
2022/06/16 07:10:43;;;;;;;;;;;;;;;;;;5109087;28;864;-66
2022/06/16 07:13:08;;;;;;;;;;;;;;;;;;5110699;28;848;-66
2022/06/16 07:15:34;;;;;;;;;;;;;;;;;;5108641;28;967;-66
2022/06/16 07:18:00;;;;;;;;;;;;;;;;;;5108646;28;1532;-66
2022/06/16 07:20:25;;;;;;;;;;;;;;;;;;5110032;28;824;-67
2022/06/16 07:22:50;;;;;;;;;;;;;;;;;;5110388;28;1190;-65
2022/06/16 07:25:16;;;;;;;;;;;;;;;;;;5108182;28;1348;-66
2022/06/16 07:27:42;;;;;;;;;;;;;;;;;;5122884;27;1205;-65
2022/06/16 07:30:13;;;;;;;;;;;;;;;;;;5113016;28;1922;-66
2022/06/16 07:32:39;;;;;;;;;;;;;;;;;;5113306;28;1391;-66
2022/06/16 07:35:04;;;;;;;;;;;;;;;;;;5114004;27;895;-66
2022/06/16 07:37:29;;;;;;;;;;;;;;;;;;5113335;28;887;-67
2022/06/16 07:39:55;;;;;;;;;;;;;;;;;;5113119;28;1256;-66
2022/06/16 07:42:20;;;;;;;;;;;;;;;;;;5113065;28;855;-67
2022/06/16 07:44:45;;;;;;;;;;;;;;;;;;5111641;28;1154;-67
2022/06/16 07:47:11;;;;;;;;;;;;;;;;;;5114013;28;961;-66
2022/06/16 07:49:36;;;;;;;;;;;;;;;;;;5096102;28;1890;-66
2022/06/16 07:52:02;;;;;;;;;;;;;;;;;;5113503;28;1057;-66
2022/06/16 07:54:27;;;;;;;;;;;;;;;;;;5114744;28;902;-66
2022/06/16 07:56:53;;;;;;;;;;;;;;;;;;5114522;28;895;-66
2022/06/16 07:59:18;;;;;;;;;;;;;;;;;;5111980;28;1188;-65
2022/06/16 08:01:44;;;;;;;;;;;;;;;;;;5112660;28;994;-66
2022/06/16 08:04:09;;;;;;;;;;;;;;;;;;5113692;28;745;-66
2022/06/16 08:06:36;;;;;;;;;;;;;;;;;;5112120;28;1189;-66
2022/06/16 08:09:02;;;;;;;;;;;;;;;;;;5111923;28;1909;-66
2022/06/16 08:14:11;;;;;;;;;;;;;;;;;;5113494;28;698;-65
2022/06/16 08:16:37;;;;;;;;;;;;;;;;;;5113769;28;1166;-66
2022/06/16 08:19:03;;;;;;;;;;;;;;;;;;5114142;28;915;-66
2022/06/16 08:21:28;;;;;;;;;;;;;;;;;;5113456;28;963;-65
2022/06/16 08:23:53;;;;;;;;;;;;;;;;;;5117468;28;844;-65
2022/06/16 08:26:19;;;;;;;;;;;;;;;;;;5114441;28;894;-66
2022/06/16 08:28:45;;;;;;;;;;;;;;;;;;5117097;28;1997;-65
2022/06/16 08:31:10;;;;;;;;;;;;;;;;;;5115363;28;998;-66
2022/06/16 08:33:36;;;;;;;;;;;;;;;;;;5115090;28;1347;-67
2022/06/16 08:36:01;;;;;;;;;;;;;;;;;;5114179;28;1212;-68
2022/06/16 08:38:27;;;;;;;;;;;;;;;;;;5115374;28;1006;-65
2022/06/16 08:41:11;;;;;;;;;;;;;;;;;;5115369;28;998;-65
2022/06/16 08:43:39;;;;;;;;;;;;;;;;;;5114492;28;1483;-67
2022/06/16 08:46:06;;;;;;;;;;;;;;;;;;5114203;28;1355;-66
2022/06/16 08:48:41;;;;;;;;;;;;;;;;;;5115332;28;1968;-65
2022/06/16 08:51:12;;;;;;;;;;;;;;;;;;5116271;28;1042;-66
2022/06/16 08:53:56;;;;;;;;;;;;;;;;;;5114312;28;1519;-66
2022/06/16 08:56:26;;;;;;;;;;;;;;;;;;5114576;28;998;-66
2022/06/16 08:59:10;;;;;;;;;;;;;;;;;;5114679;28;907;-66
2022/06/16 09:01:42;;;;;;;;;;;;;;;;;;5114120;28;916;-66
2022/06/16 09:04:10;;;;;;;;;;;;;;;;;;5111791;28;1368;-66
2022/06/16 09:06:50;;;;;;;;;;;;;;;;;;5113496;27;1380;-67
2022/06/16 09:12:31;;;;;;;;;;;;;;;;;;5132439;27;1034;-67
2022/06/16 09:15:25;;;;;;;;;;;;;;;;;;5133927;27;923;-67
2022/06/16 09:18:11;;;;;;;;;;;;;;;;;;5114762;27;1360;-67
2022/06/16 09:21:00;;;;;;;;;;;;;;;;;;5133236;27;1105;-67
2022/06/16 09:23:44;;;;;;;;;;;;;;;;;;5093387;27;1231;-67
2022/06/16 09:26:16;;;;;;;;;;;;;;;;;;5131847;27;1498;-66
2022/06/16 09:28:55;;;;;;;;;;;;;;;;;;5133386;27;1902;-67
2022/06/16 09:31:24;;;;;;;;;;;;;;;;;;5132916;27;835;-66
2022/06/16 09:33:54;;;;;;;;;;;;;;;;;;5133306;27;930;-67
2022/06/16 09:36:25;;;;;;;;;;;;;;;;;;5132627;27;847;-66
2022/06/16 09:38:55;;;;;;;;;;;;;;;;;;5132902;27;1081;-67
2022/06/16 09:44:44;;;;;;;;;;;;;;;;;;5132056;27;638;-67
2022/06/16 09:47:12;;;;;;;;;;;;;;;;;;5132764;27;954;-66
2022/06/16 09:49:44;;;;;;;;;;;;;;;;;;5131167;27;1961;-66
2022/06/16 09:52:27;;;;;;;;;;;;;;;;;;5132142;27;903;-66
2022/06/16 09:55:00;;;;;;;;;;;;;;;;;;5132528;27;1003;-66
2022/06/16 09:57:32;;;;;;;;;;;;;;;;;;5131856;27;868;-66
2022/06/16 10:00:04;;;;;;;;;;;;;;;;;;5132149;27;844;-66
2022/06/16 10:02:39;;;;;;;;;;;;;;;;;;5129995;27;1368;-67
2022/06/16 10:05:08;;;;;;;;;;;;;;;;;;5132419;27;887;-66
2022/06/16 10:07:38;;;;;;;;;;;;;;;;;;5130057;27;1244;-67
2022/06/16 10:10:03;;;;;;;;;;;;;;;;;;5132006;27;1973;-66
2022/06/16 10:12:44;;;;;;;;;;;;;;;;;;5131008;27;1130;-66
2022/06/16 10:15:09;;;;;;;;;;;;;;;;;;5132598;27;1009;-66
2022/06/16 10:17:35;;;;;;;;;;;;;;;;;;5131879;27;847;-66
2022/06/16 10:20:01;;;;;;;;;;;;;;;;;;5132319;27;1017;-66
2022/06/16 10:22:28;;;;;;;;;;;;;;;;;;5131484;27;880;-66
2022/06/16 10:24:59;;;;;;;;;;;;;;;;;;5131787;27;793;-66
2022/06/16 10:27:35;;;;;;;;;;;;;;;;;;5131260;27;1074;-66
2022/06/16 10:30:01;;;;;;;;;;;;;;;;;;5131630;27;1977;-66
2022/06/16 10:32:43;;;;;;;;;;;;;;;;;;5131222;27;926;-66
2022/06/16 10:35:14;;;;;;;;;;;;;;;;;;5131913;27;899;-66
2022/06/16 10:37:41;;;;;;;;;;;;;;;;;;5131078;27;994;-66
2022/06/16 10:40:10;;;;;;;;;;;;;;;;;;5131519;27;789;-66
2022/06/16 10:42:40;;;;;;;;;;;;;;;;;;5130687;27;891;-66
2022/06/16 10:45:05;;;;;;;;;;;;;;;;;;5131590;27;911;-65
2022/06/16 10:47:35;;;;;;;;;;;;;;;;;;5119097;27;1230;-66
2022/06/16 10:50:04;;;;;;;;;;;;;;;;;;5129516;27;1962;-66
2022/06/16 10:52:34;;;;;;;;;;;;;;;;;;5131321;27;920;-66
2022/06/16 10:54:59;;;;;;;;;;;;;;;;;;5130927;27;781;-66
2022/06/16 10:57:26;;;;;;;;;;;;;;;;;;5131576;28;810;-66
2022/06/16 10:59:56;;;;;;;;;;;;;;;;;;5130487;27;1287;-66
2022/06/16 11:02:25;;;;;;;;;;;;;;;;;;5134673;27;915;-66
2022/06/16 11:04:56;;;;;;;;;;;;;;;;;;5135038;27;1454;-66
2022/06/16 11:07:22;;;;;;;;;;;;;;;;;;5135743;27;808;-66
2022/06/16 11:09:47;;;;;;;;;;;;;;;;;;5134743;27;1897;-66
2022/06/16 11:12:15;;;;;;;;;;;;;;;;;;5135584;27;828;-66
2022/06/16 11:14:42;;;;;;;;;;;;;;;;;;5133725;27;1375;-67
2022/06/16 11:17:10;;;;;;;;;;;;;;;;;;5135707;27;974;-66
2022/06/16 11:19:37;;;;;;;;;;;;;;;;;;5134648;27;773;-67
2022/06/16 11:22:15;;;;;;;;;;;;;;;;;;5134486;27;1695;-66
2022/06/16 11:24:51;;;;;;;;;;;;;;;;;;5135400;27;765;-67
2022/06/16 11:27:17;;;;;;;;;;;;;;;;;;5134940;27;1393;-66
2022/06/16 11:29:42;;;;;;;;;;;;;;;;;;5132749;27;1913;-65
2022/06/16 11:32:18;;;;;;;;;;;;;;;;;;5116538;27;1186;-65
2022/06/16 11:34:44;;;;;;;;;;;;;;;;;;5134964;27;780;-66
2022/06/16 11:37:09;;;;;;;;;;;;;;;;;;5135351;27;835;-66
2022/06/16 11:39:38;;;;;;;;;;;;;;;;;;5133039;27;1213;-66
2022/06/16 11:42:07;;;;;;;;;;;;;;;;;;5134640;27;840;-66
2022/06/16 11:44:41;;;;;;;;;;;;;;;;;;5134396;27;1037;-66
2022/06/16 11:47:11;;;;;;;;;;;;;;;;;;5133042;27;1202;-66
2022/06/16 11:50:00;;;;;;;;;;;;;;;;;;5133730;27;1957;-66
2022/06/16 11:52:25;;;;;;;;;;;;;;;;;;5094884;27;1303;-66
2022/06/16 11:54:57;;;;;;;;;;;;;;;;;;5134494;27;909;-66
2022/06/16 11:57:43;;;;;;;;;;;;;;;;;;5134355;27;898;-66
2022/06/16 12:00:09;;;;;;;;;;;;;;;;;;5134576;27;762;-65
2022/06/16 12:02:40;;;;;;;;;;;;;;;;;;5133767;27;815;-66
2022/06/16 12:05:09;;;;;;;;;;;;;;;;;;5134200;27;859;-66
2022/06/16 12:07:37;;;;;;;;;;;;;;;;;;5133578;27;911;-66
2022/06/16 12:10:08;;;;;;;;;;;;;;;;;;5134252;27;1906;-66
2022/06/16 12:12:33;;;;;;;;;;;;;;;;;;5131507;27;1277;-65
2022/06/16 12:15:06;;;;;;;;;;;;;;;;;;5134266;27;961;-66
2022/06/16 12:17:39;;;;;;;;;;;;;;;;;;5134096;27;918;-66
2022/06/16 12:20:14;;;;;;;;;;;;;;;;;;5134684;27;809;-66
2022/06/16 12:22:42;;;;;;;;;;;;;;;;;;5133938;27;946;-66
2022/06/16 12:25:18;;;;;;;;;;;;;;;;;;5132982;27;1300;-66
2022/06/16 12:27:50;;;;;;;;;;;;;;;;;;5133970;27;1239;-66
2022/06/16 12:30:39;;;;;;;;;;;;;;;;;;5132819;27;1967;-67
2022/06/16 12:33:25;;;;;;;;;;;;;;;;;;5126034;27;1176;-66
2022/06/16 12:36:00;;;;;;;;;;;;;;;;;;5133357;27;1360;-67
2022/06/16 12:38:28;;;;;;;;;;;;;;;;;;5132866;27;1344;-67
2022/06/16 12:40:56;;;;;;;;;;;;;;;;;;5132417;27;1185;-67
2022/06/16 12:43:21;;;;;;;;;;;;;;;;;;5133985;27;911;-66
2022/06/16 12:45:48;;;;;;;;;;;;;;;;;;5134592;27;840;-67
2022/06/16 12:48:19;;;;;;;;;;;;;;;;;;5132526;27;1901;-67
2022/06/16 12:50:46;;;;;;;;;;;;;;;;;;5133285;27;990;-67
2022/06/16 12:53:15;;;;;;;;;;;;;;;;;;5133900;27;974;-67
2022/06/16 12:55:43;;;;;;;;;;;;;;;;;;5132039;27;1314;-67
2022/06/16 12:58:20;;;;;;;;;;;;;;;;;;5131864;27;1276;-67
2022/06/16 13:00:51;;;;;;;;;;;;;;;;;;5132689;27;1062;-67
2022/06/16 13:03:19;;;;;;;;;;;;;;;;;;5133296;27;1179;-66
2022/06/16 13:05:45;;;;;;;;;;;;;;;;;;5131646;27;1311;-66
2022/06/16 13:08:11;;;;;;;;;;;;;;;;;;5133348;27;904;-66
2022/06/16 13:10:42;;;;;;;;;;;;;;;;;;5113788;27;1333;-66
2022/06/16 13:13:08;;;;;;;;;;;;;;;;;;5133718;27;844;-70
2022/06/16 13:15:37;;;;;;;;;;;;;;;;;;5132497;27;997;-71
2022/06/16 13:18:24;;;;;;;;;;;;;;;;;;5132729;27;820;-71
2022/06/16 13:20:52;;;;;;;;;;;;;;;;;;5131147;27;1430;-70
2022/06/16 13:23:27;;;;;;;;;;;;;;;;;;5131620;27;1331;-70
2022/06/16 13:26:11;;;;;;;;;;;;;;;;;;5131117;27;1528;-70
2022/06/16 13:28:39;;;;;;;;;;;;;;;;;;5130981;27;1975;-71
2022/06/16 13:31:13;;;;;;;;;;;;;;;;;;5133140;27;785;-71
2022/06/16 13:33:45;;;;;;;;;;;;;;;;;;5130906;27;1185;-71
2022/06/16 13:36:13;;;;;;;;;;;;;;;;;;5131690;27;955;-71
2022/06/16 13:38:42;;;;;;;;;;;;;;;;;;5130936;27;1352;-71
2022/06/16 13:41:25;;;;;;;;;;;;;;;;;;5132834;27;930;-71
2022/06/16 13:44:04;;;;;;;;;;;;;;;;;;5130329;27;1408;-70
2022/06/16 13:46:46;;;;;;;;;;;;;;;;;;5130666;27;1269;-72
2022/06/16 13:49:24;;;;;;;;;;;;;;;;;;5132547;27;1886;-71
2022/06/16 13:51:50;;;;;;;;;;;;;;;;;;5132353;27;994;-71
2022/06/16 13:54:16;;;;;;;;;;;;;;;;;;5132398;27;1002;-71
2022/06/16 13:56:43;;;;;;;;;;;;;;;;;;5130849;27;927;-66
2022/06/16 13:59:15;;;;;;;;;;;;;;;;;;5132382;27;1061;-67
2022/06/16 14:02:00;;;;;;;;;;;;;;;;;;5132483;27;840;-68
2022/06/16 14:04:27;;;;;;;;;;;;;;;;;;5132437;27;848;-67
2022/06/16 14:07:06;;;;;;;;;;;;;;;;;;5132805;27;863;-67
2022/06/16 14:09:36;;;;;;;;;;;;;;;;;;5130980;27;1897;-67
2022/06/16 14:12:03;;;;;;;;;;;;;;;;;;5132005;27;936;-67
2022/06/16 14:14:48;;;;;;;;;;;;;;;;;;5130534;27;1327;-67
2022/06/16 14:17:43;;;;;;;;;;;;;;;;;;5131348;27;1520;-67
2022/06/16 14:20:17;;;;;;;;;;;;;;;;;;5059746;27;1220;-67
2022/06/16 14:22:48;;;;;;;;;;;;;;;;;;5132502;27;884;-68
2022/06/16 14:25:16;;;;;;;;;;;;;;;;;;5131519;27;1372;-67
2022/06/16 14:27:49;;;;;;;;;;;;;;;;;;5132511;27;1173;-66
2022/06/16 14:30:19;;;;;;;;;;;;;;;;;;5133096;27;1992;-66
2022/06/16 14:32:47;;;;;;;;;;;;;;;;;;5132805;27;844;-65
2022/06/16 14:35:19;;;;;;;;;;;;;;;;;;5132279;27;1846;-66
2022/06/16 14:37:52;;;;;;;;;;;;;;;;;;5132847;27;1556;-66
2022/06/16 14:40:22;;;;;;;;;;;;;;;;;;5132494;27;771;-66
2022/06/16 14:42:49;;;;;;;;;;;;;;;;;;5132982;27;1038;-65
2022/06/16 14:45:21;;;;;;;;;;;;;;;;;;5106782;28;1370;-66
2022/06/16 14:48:01;;;;;;;;;;;;;;;;;;5131692;28;1240;-65
2022/06/16 14:50:31;;;;;;;;;;;;;;;;;;5134061;27;1905;-65
2022/06/16 14:53:05;;;;;;;;;;;;;;;;;;5134311;27;848;-66
2022/06/16 14:55:39;;;;;;;;;;;;;;;;;;5136050;27;867;-65
2022/06/16 14:58:05;;;;;;;;;;;;;;;;;;5137086;27;789;-65
2022/06/16 15:00:37;;;;;;;;;;;;;;;;;;5135166;27;895;-65
2022/06/16 15:03:05;;;;;;;;;;;;;;;;;;5134039;27;892;-65
2022/06/16 15:05:34;;;;;;;;;;;;;;;;;;5134172;27;805;-65
2022/06/16 15:07:59;;;;;;;;;;;;;;;;;;5134246;27;816;-66
2022/06/16 15:10:25;;;;;;;;;;;;;;;;;;5132052;27;1966;-65
2022/06/16 15:12:51;;;;;;;;;;;;;;;;;;5132118;27;898;-66
2022/06/16 15:15:23;;;;;;;;;;;;;;;;;;5132729;27;847;-66
2022/06/16 15:20:34;;;;;;;;;;;;;;;;;;5132295;27;793;-65
2022/06/16 15:23:01;;;;;;;;;;;;;;;;;;5131205;27;1002;-65
2022/06/16 15:25:34;;;;;;;;;;;;;;;;;;5139584;27;994;-66
2022/06/16 15:28:19;;;;;;;;;;;;;;;;;;5134741;27;1249;-66
2022/06/16 15:30:46;;;;;;;;;;;;;;;;;;5129606;28;1307;-66
2022/06/16 15:36:09;;;;;;;;;;;;;;;;;;5131768;27;625;-65
2022/06/16 15:38:35;;;;;;;;;;;;;;;;;;5131351;27;793;-65
2022/06/16 15:41:00;;;;;;;;;;;;;;;;;;5132190;27;958;-67
2022/06/16 15:43:26;;;;;;;;;;;;;;;;;;5130152;28;898;-66
2022/06/16 15:45:53;;;;;;;;;;;;;;;;;;5131594;27;833;-66
2022/06/16 15:48:20;;;;;;;;;;;;;;;;;;5133308;27;1874;-67
2022/06/16 15:50:46;;;;;;;;;;;;;;;;;;5135243;27;912;-66
2022/06/16 15:53:14;;;;;;;;;;;;;;;;;;5134349;27;860;-67
2022/06/16 15:55:41;;;;;;;;;;;;;;;;;;5134271;27;1209;-66
2022/06/16 15:58:09;;;;;;;;;;;;;;;;;;5134395;27;1201;-66
2022/06/16 16:00:34;;;;;;;;;;;;;;;;;;5133658;27;1171;-66
2022/06/16 16:03:01;;;;;;;;;;;;;;;;;;5117087;27;1707;-66
2022/06/16 16:05:28;;;;;;;;;;;;;;;;;;5133622;27;1236;-66
2022/06/16 16:07:55;;;;;;;;;;;;;;;;;;5135730;27;867;-66
2022/06/16 16:10:22;;;;;;;;;;;;;;;;;;5115975;27;1977;-66
2022/06/16 16:13:05;;;;;;;;;;;;;;;;;;5135624;27;875;-67
2022/06/16 16:15:34;;;;;;;;;;;;;;;;;;5134850;27;832;-66
2022/06/16 16:18:01;;;;;;;;;;;;;;;;;;5134608;27;1069;-66
2022/06/16 16:20:28;;;;;;;;;;;;;;;;;;5133196;27;1346;-66
2022/06/16 16:22:57;;;;;;;;;;;;;;;;;;5133761;27;1165;-66
2022/06/16 16:25:30;;;;;;;;;;;;;;;;;;5134148;27;841;-66
2022/06/16 16:27:55;;;;;;;;;;;;;;;;;;5134228;27;1132;-66
2022/06/16 16:30:21;;;;;;;;;;;;;;;;;;5134162;27;1922;-65
2022/06/16 16:32:46;;;;;;;;;;;;;;;;;;5134073;27;943;-67
2022/06/16 16:35:14;;;;;;;;;;;;;;;;;;5132877;27;883;-66
2022/06/16 16:37:40;;;;;;;;;;;;;;;;;;5134101;27;951;-67
2022/06/16 16:43:00;;;;;;;;;;;;;;;;;;5132463;27;1432;-66
2022/06/16 16:43:13;;;;;;;;;;;;;;;;;;5134284;27;835;-67
2022/06/16 16:45:39;;;;;;;;;;;;;;;;;;5132725;27;1444;-66
2022/06/16 16:48:06;;;;;;;;;;;;;;;;;;5133769;27;832;-66
2022/06/16 16:50:39;;;;;;;;;;;;;;;;;;5131809;27;1910;-66
2022/06/16 16:53:05;;;;;;;;;;;;;;;;;;5133823;27;848;-66
2022/06/16 16:55:31;;;;;;;;;;;;;;;;;;5133300;27;1049;-66
2022/06/16 16:57:56;;;;;;;;;;;;;;;;;;5133853;27;977;-64
2022/06/16 17:00:22;;;;;;;;;;;;;;;;;;5132262;27;954;-63
2022/06/16 17:02:47;;;;;;;;;;;;;;;;;;5132369;27;1135;-64
2022/06/16 17:05:13;;;;;;;;;;;;;;;;;;5132123;27;804;-63
2022/06/16 17:07:39;;;;;;;;;;;;;;;;;;5133590;27;982;-64
2022/06/16 17:10:05;;;;;;;;;;;;;;;;;;5133485;27;1917;-64
2022/06/16 17:12:31;;;;;;;;;;;;;;;;;;5113632;27;1150;-64
2022/06/16 17:14:56;;;;;;;;;;;;;;;;;;5112188;28;1182;-64
2022/06/16 17:17:22;;;;;;;;;;;;;;;;;;5111546;28;995;-64
2022/06/16 17:19:52;;;;;;;;;;;;;;;;;;5111246;28;1290;-64
2022/06/16 17:22:18;;;;;;;;;;;;;;;;;;5112821;28;939;-64
2022/06/16 17:24:44;;;;;;;;;;;;;;;;;;5111293;28;1570;-64
2022/06/16 17:27:10;;;;;;;;;;;;;;;;;;5112592;28;973;-64
2022/06/16 17:29:36;;;;;;;;;;;;;;;;;;5110763;28;1969;-66
2022/06/16 17:32:03;;;;;;;;;;;;;;;;;;5113243;28;828;-67
2022/06/16 17:34:42;;;;;;;;;;;;;;;;;;5111066;28;1306;-65
2022/06/16 17:37:27;;;;;;;;;;;;;;;;;;5113177;28;1175;-66
2022/06/16 17:39:53;;;;;;;;;;;;;;;;;;5113319;28;1054;-66
2022/06/16 17:42:19;;;;;;;;;;;;;;;;;;5112838;28;1375;-65
2022/06/16 17:44:44;;;;;;;;;;;;;;;;;;5112965;28;789;-66
2022/06/16 17:47:10;;;;;;;;;;;;;;;;;;5112941;28;863;-66
2022/06/16 17:49:35;;;;;;;;;;;;;;;;;;5111881;28;1992;-67
2022/06/16 17:59:56;;;;;;;;;;;;;;;;;;5111841;28;698;-67
2022/06/16 18:02:22;;;;;;;;;;;;;;;;;;5110672;28;1554;-66
2022/06/16 18:04:47;;;;;;;;;;;;;;;;;;5111593;28;808;-67
2022/06/16 18:07:14;;;;;;;;;;;;;;;;;;5111341;28;958;-67